Airfield :
LOGIN :

Register | Disclaimer

   EN    FR    IT 

 










Legend :    VFR   Marginal VFR   IFR   Intensive IFR   Very Intensive IFR
Visi :
Ceiling :
>= 8 km
>= 3000ft
5 to 8 km
1000 to 3000 ft
1500m to 5 km
500 to 1000 ft
800 to 1500m
200 to 500 ft
< 800m
< 200 ft
Symbols :   Thunderstorms  Fog  Heavy snow  Heavy precipitations  Wind > 20 kt
SIGMETs :     Misc.  Thunderstorms  Icing  Turbulence  Mountain Waves  Volcanic Ashes







- Airport Elevation : 622 ft
- IATA code : BRS
- Download approach charts


EGGD - Bristol Int.

CURRENT METAR :
  • 230650Z VRB03KT 9999 FEW048 12/10 Q1010

EXPIRED METARs :
  • 230620Z 20006KT 9999 FEW048 11/10 Q1009
  • 230550Z AUTO 19006KT 9999 FEW048 11/10 Q1009
  • 230520Z AUTO 20005KT 9999 FEW046 11/10 Q1009
  • 230450Z AUTO 22006KT 9999 NCD 11/10 Q1009
  • 230420Z AUTO 22009KT 9999 NCD 12/10 Q1009

TAF TAF EGGD
Valid from the 23 at 06:00 until the 24 at 06:00 UTC


230502Z 2306/2406 19009KT 9999 FEW010 SCT025
BECMG 2312/2315 8000 -RA BKN010
TEMPO 2313/2318 17018G28KT 3000 RADZ BKN004
TEMPO 2318/2406 4000 BR BKN003
PROB40
TEMPO 2319/2402 0500 FG BKN001
TEMPO 2400/2406 +SHRA BKN008
PROB40
TEMPO 2400/2406 18020G30KT +SHGR BKN003 BKN015CB
BECMG 2403/2406 9999 NSW SCT012
ATIS : +44 1275 473 666
No reported NOTAMs for that airfield.



MET'MAP, your aeronautical weather chart ! - Copyright ORBIFLY December 2007 - Disclaimer

ORBIFLY MET'MAP TEAM :

Programming & Development : Alexandra Zaïnal
Concept & Development : Baudouin d'Aumeries
Co-Development & Prog : Marc-Olivier Méhu
Technical & hardware support : Manuel Goepfert

Contact : metmap@orbifly.com




SOURCES & CREDITS :

   NOAA